sensor_id;sensor_type;location;lat;lon;timestamp;temperature;humidity
73322;DHT22;61549;37.044;22.128;2023-03-14T00:01:52;15.90;31.20
73322;DHT22;61549;37.044;22.128;2023-03-14T00:04:18;15.80;32.10
73322;DHT22;61549;37.044;22.128;2023-03-14T00:06:44;15.70;33.50
73322;DHT22;61549;37.044;22.128;2023-03-14T00:09:12;15.60;33.10
73322;DHT22;61549;37.044;22.128;2023-03-14T00:11:38;15.60;33.80
73322;DHT22;61549;37.044;22.128;2023-03-14T00:14:04;15.50;33.10
73322;DHT22;61549;37.044;22.128;2023-03-14T00:16:30;15.40;33.20
73322;DHT22;61549;37.044;22.128;2023-03-14T00:18:58;15.40;32.40
73322;DHT22;61549;37.044;22.128;2023-03-14T00:21:24;15.30;32.80
73322;DHT22;61549;37.044;22.128;2023-03-14T00:23:51;15.20;31.60
73322;DHT22;61549;37.044;22.128;2023-03-14T00:26:19;15.20;31.30
73322;DHT22;61549;37.044;22.128;2023-03-14T00:28:45;15.20;30.80
73322;DHT22;61549;37.044;22.128;2023-03-14T00:31:15;15.20;30.60
73322;DHT22;61549;37.044;22.128;2023-03-14T00:33:42;15.10;30.70
73322;DHT22;61549;37.044;22.128;2023-03-14T00:36:10;15.10;31.20
73322;DHT22;61549;37.044;22.128;2023-03-14T00:38:47;15.10;31.80
73322;DHT22;61549;37.044;22.128;2023-03-14T00:41:15;15.10;31.40
73322;DHT22;61549;37.044;22.128;2023-03-14T00:43:42;15.10;30.80
73322;DHT22;61549;37.044;22.128;2023-03-14T00:46:12;15.10;31.20
73322;DHT22;61549;37.044;22.128;2023-03-14T00:48:38;15.20;31.70
73322;DHT22;61549;37.044;22.128;2023-03-14T00:51:05;15.20;31.40
73322;DHT22;61549;37.044;22.128;2023-03-14T00:53:35;15.20;34.10
73322;DHT22;61549;37.044;22.128;2023-03-14T00:56:12;15.20;34.50
73322;DHT22;61549;37.044;22.128;2023-03-14T00:58:38;15.20;35.90
73322;DHT22;61549;37.044;22.128;2023-03-14T01:01:15;15.00;33.00
73322;DHT22;61549;37.044;22.128;2023-03-14T01:03:41;15.00;33.10
73322;DHT22;61549;37.044;22.128;2023-03-14T01:06:12;14.90;32.80
73322;DHT22;61549;37.044;22.128;2023-03-14T01:08:39;14.90;32.70
73322;DHT22;61549;37.044;22.128;2023-03-14T01:11:07;14.80;32.10
73322;DHT22;61549;37.044;22.128;2023-03-14T01:13:33;14.90;32.60
73322;DHT22;61549;37.044;22.128;2023-03-14T01:16:03;15.00;32.00
73322;DHT22;61549;37.044;22.128;2023-03-14T01:18:32;14.90;32.50
73322;DHT22;61549;37.044;22.128;2023-03-14T01:20:58;14.90;32.50
73322;DHT22;61549;37.044;22.128;2023-03-14T01:23:24;14.90;32.50
73322;DHT22;61549;37.044;22.128;2023-03-14T01:25:50;14.80;32.30
73322;DHT22;61549;37.044;22.128;2023-03-14T01:28:16;14.90;33.00
73322;DHT22;61549;37.044;22.128;2023-03-14T01:30:42;14.90;33.40
73322;DHT22;61549;37.044;22.128;2023-03-14T01:33:07;15.00;33.40
73322;DHT22;61549;37.044;22.128;2023-03-14T01:35:33;14.90;32.10
73322;DHT22;61549;37.044;22.128;2023-03-14T01:37:59;14.80;32.40
73322;DHT22;61549;37.044;22.128;2023-03-14T01:40:25;14.80;32.90
73322;DHT22;61549;37.044;22.128;2023-03-14T01:42:57;14.70;32.50
73322;DHT22;61549;37.044;22.128;2023-03-14T01:48:28;14.70;32.40
73322;DHT22;61549;37.044;22.128;2023-03-14T01:50:57;14.70;32.70
73322;DHT22;61549;37.044;22.128;2023-03-14T01:53:23;14.80;33.10
73322;DHT22;61549;37.044;22.128;2023-03-14T01:55:50;14.90;33.50
73322;DHT22;61549;37.044;22.128;2023-03-14T01:58:18;15.00;33.80
73322;DHT22;61549;37.044;22.128;2023-03-14T02:00:45;15.00;33.30
73322;DHT22;61549;37.044;22.128;2023-03-14T02:03:16;15.00;32.60
73322;DHT22;61549;37.044;22.128;2023-03-14T02:05:44;15.10;33.20
73322;DHT22;61549;37.044;22.128;2023-03-14T02:08:22;15.00;33.50
73322;DHT22;61549;37.044;22.128;2023-03-14T02:11:04;15.00;32.90
73322;DHT22;61549;37.044;22.128;2023-03-14T02:13:29;15.00;33.40
73322;DHT22;61549;37.044;22.128;2023-03-14T02:15:55;14.80;32.70
73322;DHT22;61549;37.044;22.128;2023-03-14T02:18:21;14.80;33.10
73322;DHT22;61549;37.044;22.128;2023-03-14T02:27:10;14.90;32.70
73322;DHT22;61549;37.044;22.128;2023-03-14T02:29:50;14.90;32.20
73322;DHT22;61549;37.044;22.128;2023-03-14T02:32:19;14.90;32.40
73322;DHT22;61549;37.044;22.128;2023-03-14T02:34:48;14.90;32.70
73322;DHT22;61549;37.044;22.128;2023-03-14T02:37:16;14.90;33.00
73322;DHT22;61549;37.044;22.128;2023-03-14T02:39:45;14.90;32.90
73322;DHT22;61549;37.044;22.128;2023-03-14T02:42:12;14.90;32.90
73322;DHT22;61549;37.044;22.128;2023-03-14T02:45:01;14.90;33.00
73322;DHT22;61549;37.044;22.128;2023-03-14T02:47:57;15.00;33.80
73322;DHT22;61549;37.044;22.128;2023-03-14T02:50:27;15.00;34.40
73322;DHT22;61549;37.044;22.128;2023-03-14T02:52:55;15.00;34.30
73322;DHT22;61549;37.044;22.128;2023-03-14T02:55:22;15.00;35.10
73322;DHT22;61549;37.044;22.128;2023-03-14T02:57:49;14.90;34.60
73322;DHT22;61549;37.044;22.128;2023-03-14T03:00:16;14.80;34.50
73322;DHT22;61549;37.044;22.128;2023-03-14T03:02:42;14.60;32.40
73322;DHT22;61549;37.044;22.128;2023-03-14T03:05:07;14.50;32.10
73322;DHT22;61549;37.044;22.128;2023-03-14T03:07:33;14.60;33.20
73322;DHT22;61549;37.044;22.128;2023-03-14T03:10:00;14.60;33.90
73322;DHT22;61549;37.044;22.128;2023-03-14T03:12:25;14.50;34.40
73322;DHT22;61549;37.044;22.128;2023-03-14T03:14:51;14.50;34.40
73322;DHT22;61549;37.044;22.128;2023-03-14T03:17:17;14.50;34.20
73322;DHT22;61549;37.044;22.128;2023-03-14T03:19:43;14.50;34.10
73322;DHT22;61549;37.044;22.128;2023-03-14T03:22:09;14.60;35.00
73322;DHT22;61549;37.044;22.128;2023-03-14T03:24:35;14.50;34.00
73322;DHT22;61549;37.044;22.128;2023-03-14T03:27:00;14.50;36.60
73322;DHT22;61549;37.044;22.128;2023-03-14T03:29:26;14.50;36.70
73322;DHT22;61549;37.044;22.128;2023-03-14T03:31:52;14.50;35.10
73322;DHT22;61549;37.044;22.128;2023-03-14T03:34:19;14.40;34.40
73322;DHT22;61549;37.044;22.128;2023-03-14T03:36:44;14.40;35.50
73322;DHT22;61549;37.044;22.128;2023-03-14T03:39:10;14.40;35.10
73322;DHT22;61549;37.044;22.128;2023-03-14T03:41:36;14.40;35.80
73322;DHT22;61549;37.044;22.128;2023-03-14T03:44:02;14.30;35.60
73322;DHT22;61549;37.044;22.128;2023-03-14T03:46:28;14.30;36.60
73322;DHT22;61549;37.044;22.128;2023-03-14T03:48:55;14.20;35.90
73322;DHT22;61549;37.044;22.128;2023-03-14T03:51:21;14.20;36.40
73322;DHT22;61549;37.044;22.128;2023-03-14T03:53:47;14.20;37.10
73322;DHT22;61549;37.044;22.128;2023-03-14T03:56:12;14.10;36.50
73322;DHT22;61549;37.044;22.128;2023-03-14T03:58:38;14.00;36.70
73322;DHT22;61549;37.044;22.128;2023-03-14T04:01:06;14.00;37.40
73322;DHT22;61549;37.044;22.128;2023-03-14T04:03:32;13.90;37.00
73322;DHT22;61549;37.044;22.128;2023-03-14T04:06:09;13.70;37.60
73322;DHT22;61549;37.044;22.128;2023-03-14T04:08:36;13.70;37.90
73322;DHT22;61549;37.044;22.128;2023-03-14T04:11:03;13.70;38.90
73322;DHT22;61549;37.044;22.128;2023-03-14T04:13:29;13.80;39.60
73322;DHT22;61549;37.044;22.128;2023-03-14T04:15:56;13.70;39.80
73322;DHT22;61549;37.044;22.128;2023-03-14T04:18:23;13.70;40.40
73322;DHT22;61549;37.044;22.128;2023-03-14T04:20:54;13.80;40.60
73322;DHT22;61549;37.044;22.128;2023-03-14T04:23:24;13.70;40.00
73322;DHT22;61549;37.044;22.128;2023-03-14T04:25:51;13.70;40.00
73322;DHT22;61549;37.044;22.128;2023-03-14T04:28:17;13.70;40.30
73322;DHT22;61549;37.044;22.128;2023-03-14T04:30:43;13.70;40.40
73322;DHT22;61549;37.044;22.128;2023-03-14T04:33:08;13.70;40.80
73322;DHT22;61549;37.044;22.128;2023-03-14T04:35:35;13.60;40.10
73322;DHT22;61549;37.044;22.128;2023-03-14T04:38:01;13.60;40.20
73322;DHT22;61549;37.044;22.128;2023-03-14T04:40:28;13.60;40.20
73322;DHT22;61549;37.044;22.128;2023-03-14T04:42:56;13.50;40.20
73322;DHT22;61549;37.044;22.128;2023-03-14T04:45:22;13.40;39.60
73322;DHT22;61549;37.044;22.128;2023-03-14T04:47:47;13.40;38.80
73322;DHT22;61549;37.044;22.128;2023-03-14T04:50:13;13.40;39.00
73322;DHT22;61549;37.044;22.128;2023-03-14T04:52:39;13.50;39.20
73322;DHT22;61549;37.044;22.128;2023-03-14T04:55:05;13.50;38.60
73322;DHT22;61549;37.044;22.128;2023-03-14T04:57:31;13.50;39.20
73322;DHT22;61549;37.044;22.128;2023-03-14T04:59:57;13.50;41.60
73322;DHT22;61549;37.044;22.128;2023-03-14T05:02:22;13.50;40.60
73322;DHT22;61549;37.044;22.128;2023-03-14T05:04:48;13.50;40.40
73322;DHT22;61549;37.044;22.128;2023-03-14T05:07:14;13.40;41.40
73322;DHT22;61549;37.044;22.128;2023-03-14T05:09:40;13.40;40.50
73322;DHT22;61549;37.044;22.128;2023-03-14T05:12:06;13.30;40.20
73322;DHT22;61549;37.044;22.128;2023-03-14T05:14:32;13.30;40.60
73322;DHT22;61549;37.044;22.128;2023-03-14T05:16:58;13.30;40.10
73322;DHT22;61549;37.044;22.128;2023-03-14T05:19:24;13.20;40.50
73322;DHT22;61549;37.044;22.128;2023-03-14T05:21:50;13.20;40.40
73322;DHT22;61549;37.044;22.128;2023-03-14T05:24:16;13.20;41.10
73322;DHT22;61549;37.044;22.128;2023-03-14T05:26:42;13.20;41.20
73322;DHT22;61549;37.044;22.128;2023-03-14T05:29:14;13.10;41.20
73322;DHT22;61549;37.044;22.128;2023-03-14T05:31:47;13.10;40.60
73322;DHT22;61549;37.044;22.128;2023-03-14T05:34:12;13.10;40.50
73322;DHT22;61549;37.044;22.128;2023-03-14T05:36:38;13.20;39.80
73322;DHT22;61549;37.044;22.128;2023-03-14T05:39:04;13.30;39.60
73322;DHT22;61549;37.044;22.128;2023-03-14T05:41:30;13.40;39.60
73322;DHT22;61549;37.044;22.128;2023-03-14T05:43:56;13.60;39.90
73322;DHT22;61549;37.044;22.128;2023-03-14T05:46:21;13.80;40.50
73322;DHT22;61549;37.044;22.128;2023-03-14T05:48:47;13.90;42.50
73322;DHT22;61549;37.044;22.128;2023-03-14T05:51:13;14.00;43.60
73322;DHT22;61549;37.044;22.128;2023-03-14T05:53:39;14.20;43.10
73322;DHT22;61549;37.044;22.128;2023-03-14T05:56:05;14.40;43.30
73322;DHT22;61549;37.044;22.128;2023-03-14T05:58:31;14.50;43.20
73322;DHT22;61549;37.044;22.128;2023-03-14T06:01:03;14.70;43.70
73322;DHT22;61549;37.044;22.128;2023-03-14T06:03:29;14.80;43.80
73322;DHT22;61549;37.044;22.128;2023-03-14T06:05:55;15.00;42.00
73322;DHT22;61549;37.044;22.128;2023-03-14T06:08:21;15.20;42.60
73322;DHT22;61549;37.044;22.128;2023-03-14T06:10:47;15.30;41.20
73322;DHT22;61549;37.044;22.128;2023-03-14T06:13:13;15.60;40.60
73322;DHT22;61549;37.044;22.128;2023-03-14T06:15:41;15.80;42.60
73322;DHT22;61549;37.044;22.128;2023-03-14T06:18:07;16.10;39.40
73322;DHT22;61549;37.044;22.128;2023-03-14T06:20:33;16.20;39.20
73322;DHT22;61549;37.044;22.128;2023-03-14T06:23:02;16.50;37.10
73322;DHT22;61549;37.044;22.128;2023-03-14T06:25:28;16.60;39.20
73322;DHT22;61549;37.044;22.128;2023-03-14T06:27:54;16.80;39.20
73322;DHT22;61549;37.044;22.128;2023-03-14T06:30:19;17.00;38.10
73322;DHT22;61549;37.044;22.128;2023-03-14T06:32:45;17.20;35.60
73322;DHT22;61549;37.044;22.128;2023-03-14T06:35:11;17.40;35.50
73322;DHT22;61549;37.044;22.128;2023-03-14T06:37:37;17.60;34.60
73322;DHT22;61549;37.044;22.128;2023-03-14T06:40:06;17.70;34.60
73322;DHT22;61549;37.044;22.128;2023-03-14T06:42:34;17.80;34.00
73322;DHT22;61549;37.044;22.128;2023-03-14T06:45:00;17.90;34.70
73322;DHT22;61549;37.044;22.128;2023-03-14T06:47:25;18.10;34.40
73322;DHT22;61549;37.044;22.128;2023-03-14T06:49:51;18.40;34.30
73322;DHT22;61549;37.044;22.128;2023-03-14T06:52:17;18.50;35.20
73322;DHT22;61549;37.044;22.128;2023-03-14T06:54:43;18.70;35.90
73322;DHT22;61549;37.044;22.128;2023-03-14T06:57:09;18.80;35.00
73322;DHT22;61549;37.044;22.128;2023-03-14T06:59:34;18.90;34.80
73322;DHT22;61549;37.044;22.128;2023-03-14T07:02:00;19.00;34.70
73322;DHT22;61549;37.044;22.128;2023-03-14T07:04:27;19.10;34.30
73322;DHT22;61549;37.044;22.128;2023-03-14T07:06:53;19.20;34.20
73322;DHT22;61549;37.044;22.128;2023-03-14T07:09:19;19.20;34.80
73322;DHT22;61549;37.044;22.128;2023-03-14T07:11:45;19.40;35.20
73322;DHT22;61549;37.044;22.128;2023-03-14T07:14:11;19.30;35.40
73322;DHT22;61549;37.044;22.128;2023-03-14T07:16:37;19.40;35.80
73322;DHT22;61549;37.044;22.128;2023-03-14T07:19:03;19.60;35.80
73322;DHT22;61549;37.044;22.128;2023-03-14T07:21:29;19.70;35.80
73322;DHT22;61549;37.044;22.128;2023-03-14T07:23:55;19.80;35.70
73322;DHT22;61549;37.044;22.128;2023-03-14T07:26:21;19.90;35.10
73322;DHT22;61549;37.044;22.128;2023-03-14T07:28:47;19.90;35.30
73322;DHT22;61549;37.044;22.128;2023-03-14T07:31:12;20.10;35.50
73322;DHT22;61549;37.044;22.128;2023-03-14T07:33:38;20.20;35.60
73322;DHT22;61549;37.044;22.128;2023-03-14T07:36:04;20.30;35.70
73322;DHT22;61549;37.044;22.128;2023-03-14T07:38:30;20.50;35.80
73322;DHT22;61549;37.044;22.128;2023-03-14T07:41:01;20.60;35.60
73322;DHT22;61549;37.044;22.128;2023-03-14T07:43:27;20.80;35.40
73322;DHT22;61549;37.044;22.128;2023-03-14T07:45:53;20.80;35.70
73322;DHT22;61549;37.044;22.128;2023-03-14T07:48:26;20.80;37.00
73322;DHT22;61549;37.044;22.128;2023-03-14T07:50:53;20.90;35.90
73322;DHT22;61549;37.044;22.128;2023-03-14T07:53:20;21.00;36.30
73322;DHT22;61549;37.044;22.128;2023-03-14T07:55:46;21.10;36.30
73322;DHT22;61549;37.044;22.128;2023-03-14T07:58:13;21.20;36.50
73322;DHT22;61549;37.044;22.128;2023-03-14T08:00:39;21.20;36.20
73322;DHT22;61549;37.044;22.128;2023-03-14T08:03:05;21.20;36.00
73322;DHT22;61549;37.044;22.128;2023-03-14T08:05:35;21.40;37.40
73322;DHT22;61549;37.044;22.128;2023-03-14T08:08:01;21.40;36.70
73322;DHT22;61549;37.044;22.128;2023-03-14T08:10:27;21.40;36.80
73322;DHT22;61549;37.044;22.128;2023-03-14T08:12:55;21.50;36.60
73322;DHT22;61549;37.044;22.128;2023-03-14T08:15:22;21.00;37.10
73322;DHT22;61549;37.044;22.128;2023-03-14T08:17:50;20.90;37.50
73322;DHT22;61549;37.044;22.128;2023-03-14T08:20:17;20.80;37.00
73322;DHT22;61549;37.044;22.128;2023-03-14T08:22:43;20.90;36.30
73322;DHT22;61549;37.044;22.128;2023-03-14T08:25:09;21.00;36.70
73322;DHT22;61549;37.044;22.128;2023-03-14T08:27:36;21.10;36.20
73322;DHT22;61549;37.044;22.128;2023-03-14T08:30:11;21.10;35.80
73322;DHT22;61549;37.044;22.128;2023-03-14T08:32:37;21.20;36.20
73322;DHT22;61549;37.044;22.128;2023-03-14T08:35:07;21.30;35.60
73322;DHT22;61549;37.044;22.128;2023-03-14T08:37:34;21.30;35.70
73322;DHT22;61549;37.044;22.128;2023-03-14T08:40:19;21.40;35.90
73322;DHT22;61549;37.044;22.128;2023-03-14T08:42:45;21.00;33.50
73322;DHT22;61549;37.044;22.128;2023-03-14T08:45:13;21.00;34.10
73322;DHT22;61549;37.044;22.128;2023-03-14T08:47:40;21.10;35.00
73322;DHT22;61549;37.044;22.128;2023-03-14T08:50:07;20.80;34.60
73322;DHT22;61549;37.044;22.128;2023-03-14T08:52:33;21.00;34.60
73322;DHT22;61549;37.044;22.128;2023-03-14T08:54:59;21.10;34.00
73322;DHT22;61549;37.044;22.128;2023-03-14T08:57:25;20.90;34.90
73322;DHT22;61549;37.044;22.128;2023-03-14T08:59:56;20.90;33.00
73322;DHT22;61549;37.044;22.128;2023-03-14T09:02:24;21.00;34.00
73322;DHT22;61549;37.044;22.128;2023-03-14T09:04:50;21.20;32.80
73322;DHT22;61549;37.044;22.128;2023-03-14T09:07:17;21.30;34.00
73322;DHT22;61549;37.044;22.128;2023-03-14T09:09:42;21.50;33.00
73322;DHT22;61549;37.044;22.128;2023-03-14T09:12:08;21.50;32.00
73322;DHT22;61549;37.044;22.128;2023-03-14T09:14:34;21.30;30.00
73322;DHT22;61549;37.044;22.128;2023-03-14T09:17:00;21.40;30.30
73322;DHT22;61549;37.044;22.128;2023-03-14T09:19:26;21.40;31.70
73322;DHT22;61549;37.044;22.128;2023-03-14T09:21:52;21.30;30.80
73322;DHT22;61549;37.044;22.128;2023-03-14T09:24:18;21.20;31.60
73322;DHT22;61549;37.044;22.128;2023-03-14T09:26:44;21.20;32.50
73322;DHT22;61549;37.044;22.128;2023-03-14T09:29:09;21.20;33.20
73322;DHT22;61549;37.044;22.128;2023-03-14T09:31:35;21.10;32.40
73322;DHT22;61549;37.044;22.128;2023-03-14T09:34:01;21.10;32.50
73322;DHT22;61549;37.044;22.128;2023-03-14T09:36:30;21.10;33.70
73322;DHT22;61549;37.044;22.128;2023-03-14T09:38:56;21.20;33.50
73322;DHT22;61549;37.044;22.128;2023-03-14T09:41:28;21.20;33.90
73322;DHT22;61549;37.044;22.128;2023-03-14T09:44:26;21.30;33.60
73322;DHT22;61549;37.044;22.128;2023-03-14T09:46:54;21.20;32.90
73322;DHT22;61549;37.044;22.128;2023-03-14T09:49:28;21.20;32.90
73322;DHT22;61549;37.044;22.128;2023-03-14T09:51:57;21.20;32.30
73322;DHT22;61549;37.044;22.128;2023-03-14T09:54:32;21.30;31.00
73322;DHT22;61549;37.044;22.128;2023-03-14T09:57:00;21.40;31.40
73322;DHT22;61549;37.044;22.128;2023-03-14T09:59:28;21.30;29.40
73322;DHT22;61549;37.044;22.128;2023-03-14T10:01:58;21.30;31.20
73322;DHT22;61549;37.044;22.128;2023-03-14T10:04:25;21.30;32.20
73322;DHT22;61549;37.044;22.128;2023-03-14T10:06:53;21.30;33.50
73322;DHT22;61549;37.044;22.128;2023-03-14T10:09:24;21.30;32.70
73322;DHT22;61549;37.044;22.128;2023-03-14T10:11:56;21.20;32.00
73322;DHT22;61549;37.044;22.128;2023-03-14T10:14:32;21.00;32.30
73322;DHT22;61549;37.044;22.128;2023-03-14T10:17:09;20.90;32.60
73322;DHT22;61549;37.044;22.128;2023-03-14T10:19:37;20.80;33.20
73322;DHT22;61549;37.044;22.128;2023-03-14T10:22:04;20.80;33.60
73322;DHT22;61549;37.044;22.128;2023-03-14T10:24:34;20.70;33.40
73322;DHT22;61549;37.044;22.128;2023-03-14T10:27:05;20.70;35.60
73322;DHT22;61549;37.044;22.128;2023-03-14T10:29:34;20.80;35.70
73322;DHT22;61549;37.044;22.128;2023-03-14T10:32:00;20.70;35.90
73322;DHT22;61549;37.044;22.128;2023-03-14T10:34:35;20.60;37.30
73322;DHT22;61549;37.044;22.128;2023-03-14T10:37:24;20.60;38.00
73322;DHT22;61549;37.044;22.128;2023-03-14T10:39:53;20.50;38.20
73322;DHT22;61549;37.044;22.128;2023-03-14T10:42:43;20.40;39.50
73322;DHT22;61549;37.044;22.128;2023-03-14T10:45:39;20.50;39.00
73322;DHT22;61549;37.044;22.128;2023-03-14T10:53:20;20.30;38.90
73322;DHT22;61549;37.044;22.128;2023-03-14T10:55:46;20.20;40.80
73322;DHT22;61549;37.044;22.128;2023-03-14T10:58:29;20.30;40.30
73322;DHT22;61549;37.044;22.128;2023-03-14T11:04:04;20.50;40.80
73322;DHT22;61549;37.044;22.128;2023-03-14T11:06:42;20.50;40.30
73322;DHT22;61549;37.044;22.128;2023-03-14T11:09:18;20.60;39.40
73322;DHT22;61549;37.044;22.128;2023-03-14T11:11:47;20.50;41.10
73322;DHT22;61549;37.044;22.128;2023-03-14T11:14:31;20.40;41.10
73322;DHT22;61549;37.044;22.128;2023-03-14T11:22:41;20.60;41.50
73322;DHT22;61549;37.044;22.128;2023-03-14T11:35:53;20.70;42.00
73322;DHT22;61549;37.044;22.128;2023-03-14T11:41:02;20.60;42.90
73322;DHT22;61549;37.044;22.128;2023-03-14T11:43:33;20.70;43.40
73322;DHT22;61549;37.044;22.128;2023-03-14T11:46:37;20.80;42.80
73322;DHT22;61549;37.044;22.128;2023-03-14T11:51:58;20.50;43.70
73322;DHT22;61549;37.044;22.128;2023-03-14T11:54:49;20.50;43.70
73322;DHT22;61549;37.044;22.128;2023-03-14T11:57:17;20.50;43.30
73322;DHT22;61549;37.044;22.128;2023-03-14T12:10:40;20.30;44.80
73322;DHT22;61549;37.044;22.128;2023-03-14T12:13:10;20.30;44.70
73322;DHT22;61549;37.044;22.128;2023-03-14T12:15:57;20.30;44.80
73322;DHT22;61549;37.044;22.128;2023-03-14T12:18:30;20.40;45.00
73322;DHT22;61549;37.044;22.128;2023-03-14T12:21:03;20.30;44.70
73322;DHT22;61549;37.044;22.128;2023-03-14T12:23:44;20.20;45.70
73322;DHT22;61549;37.044;22.128;2023-03-14T12:26:24;20.30;44.40
73322;DHT22;61549;37.044;22.128;2023-03-14T12:42:18;20.40;45.20
73322;DHT22;61549;37.044;22.128;2023-03-14T12:44:51;20.40;44.90
73322;DHT22;61549;37.044;22.128;2023-03-14T12:49:56;20.20;45.10
73322;DHT22;61549;37.044;22.128;2023-03-14T12:55:12;20.40;44.50
73322;DHT22;61549;37.044;22.128;2023-03-14T13:00:39;20.40;44.70
73322;DHT22;61549;37.044;22.128;2023-03-14T13:03:18;20.40;45.60
73322;DHT22;61549;37.044;22.128;2023-03-14T13:05:56;20.40;45.70
73322;DHT22;61549;37.044;22.128;2023-03-14T13:08:41;20.20;46.00
73322;DHT22;61549;37.044;22.128;2023-03-14T13:11:15;20.30;46.50
73322;DHT22;61549;37.044;22.128;2023-03-14T13:13:51;20.30;45.60
73322;DHT22;61549;37.044;22.128;2023-03-14T13:16:21;20.40;47.40
73322;DHT22;61549;37.044;22.128;2023-03-14T13:19:11;20.40;45.60
73322;DHT22;61549;37.044;22.128;2023-03-14T13:21:41;20.50;45.10
73322;DHT22;61549;37.044;22.128;2023-03-14T13:24:28;20.50;46.10
73322;DHT22;61549;37.044;22.128;2023-03-14T13:26:56;20.50;46.10
73322;DHT22;61549;37.044;22.128;2023-03-14T13:29:40;20.50;46.40
73322;DHT22;61549;37.044;22.128;2023-03-14T13:32:22;20.50;45.90
73322;DHT22;61549;37.044;22.128;2023-03-14T13:34:48;20.60;45.50
73322;DHT22;61549;37.044;22.128;2023-03-14T13:37:20;20.50;44.90
73322;DHT22;61549;37.044;22.128;2023-03-14T13:39:50;20.60;45.80
73322;DHT22;61549;37.044;22.128;2023-03-14T13:42:17;20.50;45.30
73322;DHT22;61549;37.044;22.128;2023-03-14T13:44:43;20.30;45.70
73322;DHT22;61549;37.044;22.128;2023-03-14T13:47:14;20.20;45.60
73322;DHT22;61549;37.044;22.128;2023-03-14T13:49:44;20.10;45.80
73322;DHT22;61549;37.044;22.128;2023-03-14T13:52:36;20.10;46.80
73322;DHT22;61549;37.044;22.128;2023-03-14T13:55:05;20.30;46.70
73322;DHT22;61549;37.044;22.128;2023-03-14T13:57:45;20.40;46.10
73322;DHT22;61549;37.044;22.128;2023-03-14T14:00:29;20.40;45.50
73322;DHT22;61549;37.044;22.128;2023-03-14T14:02:56;20.30;45.80
73322;DHT22;61549;37.044;22.128;2023-03-14T14:05:27;20.30;46.70
73322;DHT22;61549;37.044;22.128;2023-03-14T14:07:53;20.20;46.50
73322;DHT22;61549;37.044;22.128;2023-03-14T14:10:20;20.00;46.60
73322;DHT22;61549;37.044;22.128;2023-03-14T14:12:53;20.20;46.40
73322;DHT22;61549;37.044;22.128;2023-03-14T14:15:27;20.30;46.10
73322;DHT22;61549;37.044;22.128;2023-03-14T14:18:01;20.20;45.50
73322;DHT22;61549;37.044;22.128;2023-03-14T14:23:10;20.00;47.20
73322;DHT22;61549;37.044;22.128;2023-03-14T14:25:37;20.00;47.00
73322;DHT22;61549;37.044;22.128;2023-03-14T14:28:22;19.80;47.40
73322;DHT22;61549;37.044;22.128;2023-03-14T14:33:25;20.00;47.80
73322;DHT22;61549;37.044;22.128;2023-03-14T14:35:59;20.00;47.10
73322;DHT22;61549;37.044;22.128;2023-03-14T14:38:26;20.30;47.10
73322;DHT22;61549;37.044;22.128;2023-03-14T14:40:55;20.40;46.70
73322;DHT22;61549;37.044;22.128;2023-03-14T14:43:27;20.40;46.60
73322;DHT22;61549;37.044;22.128;2023-03-14T14:45:54;20.40;46.10
73322;DHT22;61549;37.044;22.128;2023-03-14T14:48:26;20.30;46.60
73322;DHT22;61549;37.044;22.128;2023-03-14T14:51:05;20.30;46.40
73322;DHT22;61549;37.044;22.128;2023-03-14T14:53:39;20.40;46.60
73322;DHT22;61549;37.044;22.128;2023-03-14T14:56:14;20.30;47.20
73322;DHT22;61549;37.044;22.128;2023-03-14T14:58:43;20.20;47.50
73322;DHT22;61549;37.044;22.128;2023-03-14T15:01:23;20.20;47.30
73322;DHT22;61549;37.044;22.128;2023-03-14T15:03:51;19.90;46.80
73322;DHT22;61549;37.044;22.128;2023-03-14T15:06:19;19.80;47.50
73322;DHT22;61549;37.044;22.128;2023-03-14T15:08:48;19.90;48.30
73322;DHT22;61549;37.044;22.128;2023-03-14T15:11:37;19.90;47.40
73322;DHT22;61549;37.044;22.128;2023-03-14T15:14:03;19.80;47.90
73322;DHT22;61549;37.044;22.128;2023-03-14T15:16:30;20.00;47.30
73322;DHT22;61549;37.044;22.128;2023-03-14T15:18:59;20.10;46.90
73322;DHT22;61549;37.044;22.128;2023-03-14T15:21:27;19.90;47.10
73322;DHT22;61549;37.044;22.128;2023-03-14T15:23:53;20.00;47.20
73322;DHT22;61549;37.044;22.128;2023-03-14T15:26:32;20.00;46.40
73322;DHT22;61549;37.044;22.128;2023-03-14T15:28:58;19.80;46.90
73322;DHT22;61549;37.044;22.128;2023-03-14T15:31:24;19.60;47.00
73322;DHT22;61549;37.044;22.128;2023-03-14T15:33:50;19.60;47.10
73322;DHT22;61549;37.044;22.128;2023-03-14T15:36:24;19.60;47.40
73322;DHT22;61549;37.044;22.128;2023-03-14T15:38:51;19.80;47.20
73322;DHT22;61549;37.044;22.128;2023-03-14T15:41:18;19.70;47.10
73322;DHT22;61549;37.044;22.128;2023-03-14T15:43:44;19.90;47.50
73322;DHT22;61549;37.044;22.128;2023-03-14T15:46:12;20.00;47.40
73322;DHT22;61549;37.044;22.128;2023-03-14T15:48:39;20.10;46.90
73322;DHT22;61549;37.044;22.128;2023-03-14T15:51:05;20.20;46.60
73322;DHT22;61549;37.044;22.128;2023-03-14T15:53:31;20.20;46.20
73322;DHT22;61549;37.044;22.128;2023-03-14T15:55:57;20.30;46.60
73322;DHT22;61549;37.044;22.128;2023-03-14T15:58:23;20.30;46.60
73322;DHT22;61549;37.044;22.128;2023-03-14T16:00:49;20.30;45.90
73322;DHT22;61549;37.044;22.128;2023-03-14T16:03:27;20.30;45.90
73322;DHT22;61549;37.044;22.128;2023-03-14T16:05:53;20.30;46.00
73322;DHT22;61549;37.044;22.128;2023-03-14T16:08:19;20.30;46.10
73322;DHT22;61549;37.044;22.128;2023-03-14T16:10:45;20.40;46.10
73322;DHT22;61549;37.044;22.128;2023-03-14T16:13:12;20.40;46.40
73322;DHT22;61549;37.044;22.128;2023-03-14T16:15:38;20.40;47.20
73322;DHT22;61549;37.044;22.128;2023-03-14T16:18:06;20.40;46.70
73322;DHT22;61549;37.044;22.128;2023-03-14T16:20:32;20.40;46.90
73322;DHT22;61549;37.044;22.128;2023-03-14T16:22:58;20.30;47.50
73322;DHT22;61549;37.044;22.128;2023-03-14T16:25:24;20.30;48.10
73322;DHT22;61549;37.044;22.128;2023-03-14T16:27:50;20.20;48.90
73322;DHT22;61549;37.044;22.128;2023-03-14T16:30:15;20.20;48.10
73322;DHT22;61549;37.044;22.128;2023-03-14T16:32:41;20.10;48.10
73322;DHT22;61549;37.044;22.128;2023-03-14T16:35:07;20.00;48.40
73322;DHT22;61549;37.044;22.128;2023-03-14T16:37:36;19.90;48.70
73322;DHT22;61549;37.044;22.128;2023-03-14T16:40:03;19.80;47.50
73322;DHT22;61549;37.044;22.128;2023-03-14T16:42:34;19.80;48.50
73322;DHT22;61549;37.044;22.128;2023-03-14T16:45:10;19.70;48.00